sensor_id;sensor_type;location;lat;lon;timestamp;P1;durP1;ratioP1;P2;durP2;ratioP2
49392;SDS011;35268;42.642;23.308;2023-05-07T00:01:49;11.48;;;5.93;;
49392;SDS011;35268;42.642;23.308;2023-05-07T00:04:15;11.95;;;6.78;;
49392;SDS011;35268;42.642;23.308;2023-05-07T00:06:40;13.32;;;7.28;;
49392;SDS011;35268;42.642;23.308;2023-05-07T00:09:06;14.27;;;6.95;;
49392;SDS011;35268;42.642;23.308;2023-05-07T00:11:32;11.68;;;7.03;;
49392;SDS011;35268;42.642;23.308;2023-05-07T00:13:58;11.45;;;7.20;;
49392;SDS011;35268;42.642;23.308;2023-05-07T00:16:24;13.40;;;7.75;;
49392;SDS011;35268;42.642;23.308;2023-05-07T00:18:49;10.55;;;7.05;;
49392;SDS011;35268;42.642;23.308;2023-05-07T00:21:15;12.50;;;7.20;;
49392;SDS011;35268;42.642;23.308;2023-05-07T00:23:41;11.27;;;6.60;;
49392;SDS011;35268;42.642;23.308;2023-05-07T00:26:06;12.95;;;6.90;;
49392;SDS011;35268;42.642;23.308;2023-05-07T00:28:31;15.48;;;6.90;;
49392;SDS011;35268;42.642;23.308;2023-05-07T00:30:57;12.38;;;6.40;;
49392;SDS011;35268;42.642;23.308;2023-05-07T00:33:22;10.48;;;6.00;;
49392;SDS011;35268;42.642;23.308;2023-05-07T00:35:48;9.52;;;5.35;;
49392;SDS011;35268;42.642;23.308;2023-05-07T00:38:13;10.63;;;5.68;;
49392;SDS011;35268;42.642;23.308;2023-05-07T00:40:39;7.85;;;4.90;;
49392;SDS011;35268;42.642;23.308;2023-05-07T00:43:05;9.30;;;4.97;;
49392;SDS011;35268;42.642;23.308;2023-05-07T00:45:31;11.52;;;6.47;;
49392;SDS011;35268;42.642;23.308;2023-05-07T00:47:58;8.18;;;5.03;;
49392;SDS011;35268;42.642;23.308;2023-05-07T00:50:27;12.00;;;6.18;;
49392;SDS011;35268;42.642;23.308;2023-05-07T00:52:53;12.13;;;5.90;;
49392;SDS011;35268;42.642;23.308;2023-05-07T00:55:20;8.43;;;5.32;;
49392;SDS011;35268;42.642;23.308;2023-05-07T00:57:46;9.77;;;4.75;;
49392;SDS011;35268;42.642;23.308;2023-05-07T01:00:12;8.52;;;4.75;;
49392;SDS011;35268;42.642;23.308;2023-05-07T01:02:38;7.75;;;4.70;;
49392;SDS011;35268;42.642;23.308;2023-05-07T01:05:04;8.60;;;4.80;;
49392;SDS011;35268;42.642;23.308;2023-05-07T01:07:32;10.32;;;4.93;;
49392;SDS011;35268;42.642;23.308;2023-05-07T01:09:59;10.10;;;4.63;;
49392;SDS011;35268;42.642;23.308;2023-05-07T01:12:25;8.80;;;5.18;;
49392;SDS011;35268;42.642;23.308;2023-05-07T01:14:52;9.00;;;5.10;;
49392;SDS011;35268;42.642;23.308;2023-05-07T01:17:18;11.57;;;5.30;;
49392;SDS011;35268;42.642;23.308;2023-05-07T01:19:44;10.45;;;5.45;;
49392;SDS011;35268;42.642;23.308;2023-05-07T01:22:10;8.27;;;4.78;;
49392;SDS011;35268;42.642;23.308;2023-05-07T01:24:39;8.32;;;4.95;;
49392;SDS011;35268;42.642;23.308;2023-05-07T01:27:05;11.23;;;5.72;;
49392;SDS011;35268;42.642;23.308;2023-05-07T01:29:31;13.15;;;5.25;;
49392;SDS011;35268;42.642;23.308;2023-05-07T01:31:57;11.52;;;5.13;;
49392;SDS011;35268;42.642;23.308;2023-05-07T01:34:25;11.05;;;6.70;;
49392;SDS011;35268;42.642;23.308;2023-05-07T01:36:53;9.23;;;5.68;;
49392;SDS011;35268;42.642;23.308;2023-05-07T01:39:21;10.82;;;5.65;;
49392;SDS011;35268;42.642;23.308;2023-05-07T01:41:49;10.30;;;5.57;;
49392;SDS011;35268;42.642;23.308;2023-05-07T01:44:15;17.33;;;6.97;;
49392;SDS011;35268;42.642;23.308;2023-05-07T01:46:43;14.05;;;6.75;;
49392;SDS011;35268;42.642;23.308;2023-05-07T01:49:08;13.02;;;6.85;;
49392;SDS011;35268;42.642;23.308;2023-05-07T01:51:34;11.63;;;6.25;;
49392;SDS011;35268;42.642;23.308;2023-05-07T01:54:00;14.43;;;7.10;;
49392;SDS011;35268;42.642;23.308;2023-05-07T01:56:26;11.13;;;6.35;;
49392;SDS011;35268;42.642;23.308;2023-05-07T01:58:51;12.23;;;6.55;;
49392;SDS011;35268;42.642;23.308;2023-05-07T02:01:17;11.77;;;5.95;;
49392;SDS011;35268;42.642;23.308;2023-05-07T02:03:43;10.50;;;5.40;;
49392;SDS011;35268;42.642;23.308;2023-05-07T02:06:08;15.45;;;7.22;;
49392;SDS011;35268;42.642;23.308;2023-05-07T02:08:34;9.77;;;5.82;;
49392;SDS011;35268;42.642;23.308;2023-05-07T02:11:00;10.27;;;5.38;;
49392;SDS011;35268;42.642;23.308;2023-05-07T02:13:26;9.88;;;4.43;;
49392;SDS011;35268;42.642;23.308;2023-05-07T02:15:54;9.50;;;5.15;;
49392;SDS011;35268;42.642;23.308;2023-05-07T02:18:19;9.85;;;5.75;;
49392;SDS011;35268;42.642;23.308;2023-05-07T02:20:45;8.40;;;4.65;;
49392;SDS011;35268;42.642;23.308;2023-05-07T02:23:10;11.00;;;4.95;;
49392;SDS011;35268;42.642;23.308;2023-05-07T02:25:36;10.02;;;5.07;;
49392;SDS011;35268;42.642;23.308;2023-05-07T02:28:01;11.70;;;5.95;;
49392;SDS011;35268;42.642;23.308;2023-05-07T02:30:27;12.20;;;6.80;;
49392;SDS011;35268;42.642;23.308;2023-05-07T02:32:53;11.27;;;5.80;;
49392;SDS011;35268;42.642;23.308;2023-05-07T02:35:19;9.73;;;5.43;;
49392;SDS011;35268;42.642;23.308;2023-05-07T02:37:44;8.50;;;5.50;;
49392;SDS011;35268;42.642;23.308;2023-05-07T02:40:10;10.45;;;5.15;;
49392;SDS011;35268;42.642;23.308;2023-05-07T02:42:36;9.90;;;6.28;;
49392;SDS011;35268;42.642;23.308;2023-05-07T02:45:02;11.73;;;6.38;;
49392;SDS011;35268;42.642;23.308;2023-05-07T02:47:30;12.60;;;6.97;;
49392;SDS011;35268;42.642;23.308;2023-05-07T02:49:56;15.05;;;7.70;;
49392;SDS011;35268;42.642;23.308;2023-05-07T02:52:21;15.38;;;7.28;;
49392;SDS011;35268;42.642;23.308;2023-05-07T02:54:47;15.20;;;7.45;;
49392;SDS011;35268;42.642;23.308;2023-05-07T02:57:13;9.98;;;6.47;;
49392;SDS011;35268;42.642;23.308;2023-05-07T02:59:38;14.27;;;6.32;;
49392;SDS011;35268;42.642;23.308;2023-05-07T03:02:04;12.80;;;7.35;;
49392;SDS011;35268;42.642;23.308;2023-05-07T03:04:29;11.43;;;6.95;;
49392;SDS011;35268;42.642;23.308;2023-05-07T03:06:54;11.15;;;6.93;;
49392;SDS011;35268;42.642;23.308;2023-05-07T03:09:20;16.95;;;6.55;;
49392;SDS011;35268;42.642;23.308;2023-05-07T03:11:45;13.38;;;7.50;;
49392;SDS011;35268;42.642;23.308;2023-05-07T03:14:11;12.38;;;7.28;;
49392;SDS011;35268;42.642;23.308;2023-05-07T03:16:37;17.17;;;7.35;;
49392;SDS011;35268;42.642;23.308;2023-05-07T03:19:03;11.07;;;5.93;;
49392;SDS011;35268;42.642;23.308;2023-05-07T03:21:28;15.02;;;7.10;;
49392;SDS011;35268;42.642;23.308;2023-05-07T03:23:55;12.35;;;7.70;;
49392;SDS011;35268;42.642;23.308;2023-05-07T03:26:21;17.08;;;7.05;;
49392;SDS011;35268;42.642;23.308;2023-05-07T03:28:46;19.23;;;7.55;;
49392;SDS011;35268;42.642;23.308;2023-05-07T03:31:12;16.65;;;7.95;;
49392;SDS011;35268;42.642;23.308;2023-05-07T03:33:42;15.02;;;7.55;;
49392;SDS011;35268;42.642;23.308;2023-05-07T03:36:15;13.45;;;7.60;;
49392;SDS011;35268;42.642;23.308;2023-05-07T03:38:41;13.05;;;7.60;;
49392;SDS011;35268;42.642;23.308;2023-05-07T03:41:06;11.65;;;7.00;;
49392;SDS011;35268;42.642;23.308;2023-05-07T03:43:32;12.02;;;7.32;;
49392;SDS011;35268;42.642;23.308;2023-05-07T03:45:57;15.02;;;7.38;;
49392;SDS011;35268;42.642;23.308;2023-05-07T03:48:23;16.20;;;7.35;;
49392;SDS011;35268;42.642;23.308;2023-05-07T03:50:48;13.98;;;8.10;;
49392;SDS011;35268;42.642;23.308;2023-05-07T03:53:14;11.65;;;6.95;;
49392;SDS011;35268;42.642;23.308;2023-05-07T03:55:39;13.70;;;6.88;;
49392;SDS011;35268;42.642;23.308;2023-05-07T03:58:04;11.95;;;6.82;;
49392;SDS011;35268;42.642;23.308;2023-05-07T04:00:30;14.65;;;6.35;;
49392;SDS011;35268;42.642;23.308;2023-05-07T04:02:58;14.75;;;7.38;;
49392;SDS011;35268;42.642;23.308;2023-05-07T04:05:24;12.38;;;7.13;;
49392;SDS011;35268;42.642;23.308;2023-05-07T04:07:49;21.70;;;6.88;;
49392;SDS011;35268;42.642;23.308;2023-05-07T04:10:15;12.13;;;7.70;;
49392;SDS011;35268;42.642;23.308;2023-05-07T04:12:40;13.73;;;8.07;;
49392;SDS011;35268;42.642;23.308;2023-05-07T04:15:06;16.50;;;7.60;;
49392;SDS011;35268;42.642;23.308;2023-05-07T04:17:32;12.35;;;7.20;;
49392;SDS011;35268;42.642;23.308;2023-05-07T04:19:57;12.88;;;7.38;;
49392;SDS011;35268;42.642;23.308;2023-05-07T04:22:22;10.82;;;7.25;;
49392;SDS011;35268;42.642;23.308;2023-05-07T04:24:48;11.63;;;7.75;;
49392;SDS011;35268;42.642;23.308;2023-05-07T04:27:13;16.15;;;7.25;;
49392;SDS011;35268;42.642;23.308;2023-05-07T04:29:39;10.90;;;7.78;;
49392;SDS011;35268;42.642;23.308;2023-05-07T04:32:07;11.70;;;7.32;;
49392;SDS011;35268;42.642;23.308;2023-05-07T04:34:33;11.45;;;7.28;;
49392;SDS011;35268;42.642;23.308;2023-05-07T04:36:59;14.65;;;8.27;;
49392;SDS011;35268;42.642;23.308;2023-05-07T04:39:25;16.27;;;7.95;;
49392;SDS011;35268;42.642;23.308;2023-05-07T04:41:50;18.58;;;8.77;;
49392;SDS011;35268;42.642;23.308;2023-05-07T04:44:16;15.57;;;8.05;;
49392;SDS011;35268;42.642;23.308;2023-05-07T04:46:41;23.17;;;8.82;;
49392;SDS011;35268;42.642;23.308;2023-05-07T04:49:07;16.08;;;8.80;;
49392;SDS011;35268;42.642;23.308;2023-05-07T04:51:32;15.73;;;8.43;;
49392;SDS011;35268;42.642;23.308;2023-05-07T04:53:58;13.55;;;8.20;;
49392;SDS011;35268;42.642;23.308;2023-05-07T04:56:23;11.88;;;7.60;;
49392;SDS011;35268;42.642;23.308;2023-05-07T04:58:48;23.05;;;8.75;;
49392;SDS011;35268;42.642;23.308;2023-05-07T05:01:14;14.95;;;8.20;;
49392;SDS011;35268;42.642;23.308;2023-05-07T05:03:39;16.73;;;8.70;;
49392;SDS011;35268;42.642;23.308;2023-05-07T05:06:05;16.42;;;9.18;;
49392;SDS011;35268;42.642;23.308;2023-05-07T05:08:31;18.38;;;9.27;;
49392;SDS011;35268;42.642;23.308;2023-05-07T05:10:57;15.35;;;7.38;;
49392;SDS011;35268;42.642;23.308;2023-05-07T05:13:22;22.00;;;8.40;;
49392;SDS011;35268;42.642;23.308;2023-05-07T05:15:47;14.82;;;8.48;;
49392;SDS011;35268;42.642;23.308;2023-05-07T05:18:13;13.75;;;8.00;;
49392;SDS011;35268;42.642;23.308;2023-05-07T05:20:38;17.17;;;9.10;;
49392;SDS011;35268;42.642;23.308;2023-05-07T05:23:04;17.52;;;8.88;;
49392;SDS011;35268;42.642;23.308;2023-05-07T05:25:29;17.08;;;8.85;;
49392;SDS011;35268;42.642;23.308;2023-05-07T05:27:55;16.38;;;8.02;;
49392;SDS011;35268;42.642;23.308;2023-05-07T05:30:21;13.25;;;7.63;;
49392;SDS011;35268;42.642;23.308;2023-05-07T05:32:47;19.38;;;9.13;;
49392;SDS011;35268;42.642;23.308;2023-05-07T05:35:12;12.00;;;7.93;;
49392;SDS011;35268;42.642;23.308;2023-05-07T05:37:37;14.85;;;8.25;;
49392;SDS011;35268;42.642;23.308;2023-05-07T05:40:03;16.35;;;7.90;;
49392;SDS011;35268;42.642;23.308;2023-05-07T05:42:29;15.70;;;7.82;;
49392;SDS011;35268;42.642;23.308;2023-05-07T05:44:54;11.43;;;7.32;;
49392;SDS011;35268;42.642;23.308;2023-05-07T05:47:20;17.52;;;8.43;;
49392;SDS011;35268;42.642;23.308;2023-05-07T05:49:45;13.82;;;7.78;;
49392;SDS011;35268;42.642;23.308;2023-05-07T05:52:11;15.15;;;7.25;;
49392;SDS011;35268;42.642;23.308;2023-05-07T05:54:38;17.55;;;8.88;;
49392;SDS011;35268;42.642;23.308;2023-05-07T05:57:04;11.68;;;8.00;;
49392;SDS011;35268;42.642;23.308;2023-05-07T05:59:29;12.60;;;7.95;;
49392;SDS011;35268;42.642;23.308;2023-05-07T06:01:55;15.60;;;8.75;;
49392;SDS011;35268;42.642;23.308;2023-05-07T06:04:20;12.85;;;8.05;;
49392;SDS011;35268;42.642;23.308;2023-05-07T06:06:46;12.43;;;7.60;;
49392;SDS011;35268;42.642;23.308;2023-05-07T06:09:11;14.75;;;7.55;;
49392;SDS011;35268;42.642;23.308;2023-05-07T06:11:37;11.02;;;6.90;;
49392;SDS011;35268;42.642;23.308;2023-05-07T06:14:02;16.85;;;7.97;;
49392;SDS011;35268;42.642;23.308;2023-05-07T06:16:28;12.70;;;7.25;;
49392;SDS011;35268;42.642;23.308;2023-05-07T06:18:53;12.95;;;7.50;;
49392;SDS011;35268;42.642;23.308;2023-05-07T06:21:19;12.40;;;7.03;;
49392;SDS011;35268;42.642;23.308;2023-05-07T06:23:44;19.05;;;7.05;;
49392;SDS011;35268;42.642;23.308;2023-05-07T06:26:10;9.15;;;6.10;;
49392;SDS011;35268;42.642;23.308;2023-05-07T06:28:35;10.25;;;6.25;;
49392;SDS011;35268;42.642;23.308;2023-05-07T06:33:44;9.75;;;6.50;;
49392;SDS011;35268;42.642;23.308;2023-05-07T06:36:09;21.13;;;6.10;;
49392;SDS011;35268;42.642;23.308;2023-05-07T06:38:35;10.73;;;5.90;;
49392;SDS011;35268;42.642;23.308;2023-05-07T06:41:01;10.15;;;5.88;;
49392;SDS011;35268;42.642;23.308;2023-05-07T06:43:26;13.15;;;6.45;;
49392;SDS011;35268;42.642;23.308;2023-05-07T06:45:52;12.82;;;6.25;;
49392;SDS011;35268;42.642;23.308;2023-05-07T06:48:17;10.75;;;5.60;;
49392;SDS011;35268;42.642;23.308;2023-05-07T06:50:42;13.85;;;6.93;;
49392;SDS011;35268;42.642;23.308;2023-05-07T06:53:08;13.10;;;6.57;;
49392;SDS011;35268;42.642;23.308;2023-05-07T06:55:33;11.90;;;5.55;;
49392;SDS011;35268;42.642;23.308;2023-05-07T06:57:59;10.52;;;5.05;;
49392;SDS011;35268;42.642;23.308;2023-05-07T07:00:26;9.85;;;5.38;;
49392;SDS011;35268;42.642;23.308;2023-05-07T07:02:53;12.38;;;5.80;;
49392;SDS011;35268;42.642;23.308;2023-05-07T07:05:18;12.55;;;4.85;;
49392;SDS011;35268;42.642;23.308;2023-05-07T07:07:44;13.35;;;5.40;;
49392;SDS011;35268;42.642;23.308;2023-05-07T07:10:17;10.80;;;4.95;;
49392;SDS011;35268;42.642;23.308;2023-05-07T07:12:44;12.23;;;5.57;;
49392;SDS011;35268;42.642;23.308;2023-05-07T07:15:09;8.85;;;4.75;;
49392;SDS011;35268;42.642;23.308;2023-05-07T07:17:35;11.15;;;4.68;;
49392;SDS011;35268;42.642;23.308;2023-05-07T07:20:00;9.30;;;4.45;;
49392;SDS011;35268;42.642;23.308;2023-05-07T07:22:26;8.55;;;6.07;;
49392;SDS011;35268;42.642;23.308;2023-05-07T07:24:51;10.90;;;4.78;;
49392;SDS011;35268;42.642;23.308;2023-05-07T07:27:17;9.60;;;4.80;;
49392;SDS011;35268;42.642;23.308;2023-05-07T07:29:42;11.63;;;4.68;;
49392;SDS011;35268;42.642;23.308;2023-05-07T07:32:08;23.42;;;5.50;;
49392;SDS011;35268;42.642;23.308;2023-05-07T07:34:33;7.45;;;4.78;;
49392;SDS011;35268;42.642;23.308;2023-05-07T07:36:59;9.93;;;5.95;;
49392;SDS011;35268;42.642;23.308;2023-05-07T07:39:30;19.73;;;4.88;;
49392;SDS011;35268;42.642;23.308;2023-05-07T07:41:56;8.60;;;5.20;;
49392;SDS011;35268;42.642;23.308;2023-05-07T07:44:21;9.80;;;4.82;;
49392;SDS011;35268;42.642;23.308;2023-05-07T07:46:47;7.63;;;3.95;;
49392;SDS011;35268;42.642;23.308;2023-05-07T07:49:12;14.63;;;4.72;;
49392;SDS011;35268;42.642;23.308;2023-05-07T07:51:38;8.68;;;4.93;;
49392;SDS011;35268;42.642;23.308;2023-05-07T07:54:03;13.75;;;5.07;;
49392;SDS011;35268;42.642;23.308;2023-05-07T07:56:29;11.43;;;4.57;;
49392;SDS011;35268;42.642;23.308;2023-05-07T07:58:54;8.77;;;3.25;;
49392;SDS011;35268;42.642;23.308;2023-05-07T08:01:20;12.40;;;4.70;;
49392;SDS011;35268;42.642;23.308;2023-05-07T08:03:45;13.70;;;5.18;;
49392;SDS011;35268;42.642;23.308;2023-05-07T08:06:11;14.43;;;4.35;;
49392;SDS011;35268;42.642;23.308;2023-05-07T08:08:36;8.63;;;5.55;;
49392;SDS011;35268;42.642;23.308;2023-05-07T08:11:02;12.40;;;5.70;;
49392;SDS011;35268;42.642;23.308;2023-05-07T08:13:27;8.85;;;5.57;;
49392;SDS011;35268;42.642;23.308;2023-05-07T08:15:53;8.25;;;4.95;;
49392;SDS011;35268;42.642;23.308;2023-05-07T08:18:18;7.07;;;4.55;;
49392;SDS011;35268;42.642;23.308;2023-05-07T08:20:44;14.25;;;5.82;;
49392;SDS011;35268;42.642;23.308;2023-05-07T08:23:09;21.88;;;5.93;;
49392;SDS011;35268;42.642;23.308;2023-05-07T08:25:35;8.88;;;4.68;;
49392;SDS011;35268;42.642;23.308;2023-05-07T08:28:01;11.35;;;4.38;;
49392;SDS011;35268;42.642;23.308;2023-05-07T08:30:26;7.40;;;4.55;;
49392;SDS011;35268;42.642;23.308;2023-05-07T08:32:52;10.82;;;4.32;;
49392;SDS011;35268;42.642;23.308;2023-05-07T08:35:17;7.97;;;3.90;;
49392;SDS011;35268;42.642;23.308;2023-05-07T08:37:43;7.65;;;3.33;;
49392;SDS011;35268;42.642;23.308;2023-05-07T08:40:09;14.15;;;5.00;;
49392;SDS011;35268;42.642;23.308;2023-05-07T08:42:35;14.10;;;5.53;;
49392;SDS011;35268;42.642;23.308;2023-05-07T08:45:03;9.68;;;5.85;;
49392;SDS011;35268;42.642;23.308;2023-05-07T08:47:34;16.27;;;5.97;;
49392;SDS011;35268;42.642;23.308;2023-05-07T08:50:04;9.90;;;5.10;;
49392;SDS011;35268;42.642;23.308;2023-05-07T08:52:30;12.05;;;5.72;;
49392;SDS011;35268;42.642;23.308;2023-05-07T08:54:56;10.32;;;6.00;;
49392;SDS011;35268;42.642;23.308;2023-05-07T08:57:23;11.40;;;5.43;;
49392;SDS011;35268;42.642;23.308;2023-05-07T08:59:49;10.55;;;5.80;;
49392;SDS011;35268;42.642;23.308;2023-05-07T09:02:15;14.30;;;5.00;;
49392;SDS011;35268;42.642;23.308;2023-05-07T09:04:41;8.77;;;5.53;;
49392;SDS011;35268;42.642;23.308;2023-05-07T09:07:07;9.52;;;5.60;;
49392;SDS011;35268;42.642;23.308;2023-05-07T09:09:32;11.27;;;5.43;;
49392;SDS011;35268;42.642;23.308;2023-05-07T09:12:01;10.80;;;5.43;;
49392;SDS011;35268;42.642;23.308;2023-05-07T09:14:28;11.05;;;6.05;;
49392;SDS011;35268;42.642;23.308;2023-05-07T09:16:55;10.77;;;5.40;;
49392;SDS011;35268;42.642;23.308;2023-05-07T09:19:24;10.15;;;5.50;;
49392;SDS011;35268;42.642;23.308;2023-05-07T09:21:50;8.23;;;4.43;;
49392;SDS011;35268;42.642;23.308;2023-05-07T09:24:23;11.00;;;4.55;;
49392;SDS011;35268;42.642;23.308;2023-05-07T09:26:48;8.93;;;4.35;;
49392;SDS011;35268;42.642;23.308;2023-05-07T09:29:15;8.57;;;4.72;;
49392;SDS011;35268;42.642;23.308;2023-05-07T09:31:41;11.48;;;4.70;;
49392;SDS011;35268;42.642;23.308;2023-05-07T09:34:07;8.65;;;4.25;;
49392;SDS011;35268;42.642;23.308;2023-05-07T09:36:33;6.25;;;4.50;;
49392;SDS011;35268;42.642;23.308;2023-05-07T09:39:01;7.57;;;4.00;;
49392;SDS011;35268;42.642;23.308;2023-05-07T09:41:27;10.45;;;4.38;;
49392;SDS011;35268;42.642;23.308;2023-05-07T09:43:55;11.13;;;4.85;;
49392;SDS011;35268;42.642;23.308;2023-05-07T09:46:21;7.28;;;4.03;;
49392;SDS011;35268;42.642;23.308;2023-05-07T09:48:59;6.57;;;4.60;;
49392;SDS011;35268;42.642;23.308;2023-05-07T09:51:33;7.03;;;3.90;;
49392;SDS011;35268;42.642;23.308;2023-05-07T09:54:04;6.35;;;3.85;;
49392;SDS011;35268;42.642;23.308;2023-05-07T09:56:30;5.53;;;3.47;;
49392;SDS011;35268;42.642;23.308;2023-05-07T09:58:58;9.40;;;4.32;;
49392;SDS011;35268;42.642;23.308;2023-05-07T10:01:25;10.55;;;4.20;;
49392;SDS011;35268;42.642;23.308;2023-05-07T10:03:52;13.18;;;3.97;;
49392;SDS011;35268;42.642;23.308;2023-05-07T10:06:18;7.10;;;3.75;;
49392;SDS011;35268;42.642;23.308;2023-05-07T10:08:47;11.52;;;4.43;;
49392;SDS011;35268;42.642;23.308;2023-05-07T10:11:13;8.77;;;4.22;;
49392;SDS011;35268;42.642;23.308;2023-05-07T10:13:42;9.65;;;5.28;;
49392;SDS011;35268;42.642;23.308;2023-05-07T10:16:08;15.75;;;4.60;;
49392;SDS011;35268;42.642;23.308;2023-05-07T10:18:34;11.50;;;5.55;;
49392;SDS011;35268;42.642;23.308;2023-05-07T10:21:04;9.93;;;4.60;;
49392;SDS011;35268;42.642;23.308;2023-05-07T10:23:33;12.38;;;3.80;;
49392;SDS011;35268;42.642;23.308;2023-05-07T10:25:59;4.90;;;3.00;;
49392;SDS011;35268;42.642;23.308;2023-05-07T10:28:29;6.28;;;3.90;;
49392;SDS011;35268;42.642;23.308;2023-05-07T10:33:35;6.28;;;3.65;;
49392;SDS011;35268;42.642;23.308;2023-05-07T10:36:02;8.73;;;3.17;;
49392;SDS011;35268;42.642;23.308;2023-05-07T10:38:29;7.45;;;3.63;;
49392;SDS011;35268;42.642;23.308;2023-05-07T10:40:55;6.80;;;4.00;;
49392;SDS011;35268;42.642;23.308;2023-05-07T10:43:20;7.63;;;3.67;;
49392;SDS011;35268;42.642;23.308;2023-05-07T10:51:33;6.72;;;3.65;;
49392;SDS011;35268;42.642;23.308;2023-05-07T10:56:34;8.90;;;3.92;;
49392;SDS011;35268;42.642;23.308;2023-05-07T11:01:49;6.30;;;3.25;;
49392;SDS011;35268;42.642;23.308;2023-05-07T11:04:17;8.98;;;3.70;;
49392;SDS011;35268;42.642;23.308;2023-05-07T11:15:12;8.05;;;4.00;;
49392;SDS011;35268;42.642;23.308;2023-05-07T11:26:02;7.07;;;3.13;;
49392;SDS011;35268;42.642;23.308;2023-05-07T11:28:28;14.88;;;3.63;;
49392;SDS011;35268;42.642;23.308;2023-05-07T11:30:55;14.00;;;3.67;;
49392;SDS011;35268;42.642;23.308;2023-05-07T11:33:22;5.63;;;3.58;;
49392;SDS011;35268;42.642;23.308;2023-05-07T11:35:47;5.70;;;3.30;;
49392;SDS011;35268;42.642;23.308;2023-05-07T11:38:13;7.45;;;2.90;;
49392;SDS011;35268;42.642;23.308;2023-05-07T11:40:58;7.90;;;4.22;;
49392;SDS011;35268;42.642;23.308;2023-05-07T11:43:29;8.88;;;3.10;;
49392;SDS011;35268;42.642;23.308;2023-05-07T11:46:04;7.05;;;3.13;;
49392;SDS011;35268;42.642;23.308;2023-05-07T11:48:31;7.55;;;3.55;;
49392;SDS011;35268;42.642;23.308;2023-05-07T11:51:01;6.28;;;3.00;;
49392;SDS011;35268;42.642;23.308;2023-05-07T11:53:31;7.88;;;3.08;;
49392;SDS011;35268;42.642;23.308;2023-05-07T11:56:05;5.85;;;3.08;;
49392;SDS011;35268;42.642;23.308;2023-05-07T11:58:34;4.22;;;2.90;;
49392;SDS011;35268;42.642;23.308;2023-05-07T12:01:00;7.10;;;3.33;;
49392;SDS011;35268;42.642;23.308;2023-05-07T12:03:26;14.55;;;3.42;;
49392;SDS011;35268;42.642;23.308;2023-05-07T12:05:51;8.18;;;3.00;;
49392;SDS011;35268;42.642;23.308;2023-05-07T12:08:18;6.70;;;3.55;;
49392;SDS011;35268;42.642;23.308;2023-05-07T12:10:44;5.63;;;2.83;;
49392;SDS011;35268;42.642;23.308;2023-05-07T12:13:20;5.30;;;3.00;;
49392;SDS011;35268;42.642;23.308;2023-05-07T12:15:49;5.22;;;2.63;;
49392;SDS011;35268;42.642;23.308;2023-05-07T12:18:16;5.57;;;3.08;;
49392;SDS011;35268;42.642;23.308;2023-05-07T12:20:42;5.25;;;2.80;;
49392;SDS011;35268;42.642;23.308;2023-05-07T12:23:08;5.10;;;2.80;;
49392;SDS011;35268;42.642;23.308;2023-05-07T12:25:34;4.63;;;2.67;;
49392;SDS011;35268;42.642;23.308;2023-05-07T12:28:01;3.92;;;2.42;;
49392;SDS011;35268;42.642;23.308;2023-05-07T12:30:29;7.10;;;2.70;;
49392;SDS011;35268;42.642;23.308;2023-05-07T12:33:05;4.50;;;2.22;;
49392;SDS011;35268;42.642;23.308;2023-05-07T12:35:31;6.70;;;2.63;;
49392;SDS011;35268;42.642;23.308;2023-05-07T12:38:01;5.93;;;2.30;;
49392;SDS011;35268;42.642;23.308;2023-05-07T12:40:36;4.75;;;2.45;;
49392;SDS011;35268;42.642;23.308;2023-05-07T12:43:04;5.75;;;3.80;;
49392;SDS011;35268;42.642;23.308;2023-05-07T12:45:30;4.55;;;2.83;;
49392;SDS011;35268;42.642;23.308;2023-05-07T12:47:55;6.63;;;2.75;;
49392;SDS011;35268;42.642;23.308;2023-05-07T12:50:21;5.68;;;2.13;;
49392;SDS011;35268;42.642;23.308;2023-05-07T12:52:47;9.88;;;2.00;;
49392;SDS011;35268;42.642;23.308;2023-05-07T12:55:16;3.90;;;2.40;;
49392;SDS011;35268;42.642;23.308;2023-05-07T12:57:48;4.53;;;1.90;;
49392;SDS011;35268;42.642;23.308;2023-05-07T13:00:15;5.38;;;2.05;;
49392;SDS011;35268;42.642;23.308;2023-05-07T13:02:42;7.80;;;3.10;;
49392;SDS011;35268;42.642;23.308;2023-05-07T13:05:14;4.10;;;2.15;;
49392;SDS011;35268;42.642;23.308;2023-05-07T13:07:40;2.80;;;1.70;;
49392;SDS011;35268;42.642;23.308;2023-05-07T13:10:06;5.30;;;2.55;;
49392;SDS011;35268;42.642;23.308;2023-05-07T13:12:32;4.30;;;2.20;;
49392;SDS011;35268;42.642;23.308;2023-05-07T13:14:57;2.35;;;1.70;;
49392;SDS011;35268;42.642;23.308;2023-05-07T13:17:24;4.70;;;2.22;;
49392;SDS011;35268;42.642;23.308;2023-05-07T13:19:49;9.48;;;2.20;;
49392;SDS011;35268;42.642;23.308;2023-05-07T13:22:15;6.35;;;2.33;;
49392;SDS011;35268;42.642;23.308;2023-05-07T13:24:40;4.38;;;1.85;;
49392;SDS011;35268;42.642;23.308;2023-05-07T13:27:07;4.88;;;2.30;;
49392;SDS011;35268;42.642;23.308;2023-05-07T13:29:32;2.15;;;1.60;;
49392;SDS011;35268;42.642;23.308;2023-05-07T13:31:58;3.60;;;2.10;;
49392;SDS011;35268;42.642;23.308;2023-05-07T13:34:24;5.78;;;2.03;;
49392;SDS011;35268;42.642;23.308;2023-05-07T13:36:50;4.43;;;1.90;;
49392;SDS011;35268;42.642;23.308;2023-05-07T13:39:16;3.47;;;1.85;;
49392;SDS011;35268;42.642;23.308;2023-05-07T13:41:41;6.15;;;2.50;;
49392;SDS011;35268;42.642;23.308;2023-05-07T13:44:06;4.57;;;1.90;;
49392;SDS011;35268;42.642;23.308;2023-05-07T13:46:32;5.60;;;2.05;;
49392;SDS011;35268;42.642;23.308;2023-05-07T13:48:57;5.57;;;2.10;;
49392;SDS011;35268;42.642;23.308;2023-05-07T13:51:23;5.45;;;2.10;;
49392;SDS011;35268;42.642;23.308;2023-05-07T13:53:49;3.47;;;1.90;;
49392;SDS011;35268;42.642;23.308;2023-05-07T13:56:15;6.50;;;2.22;;
49392;SDS011;35268;42.642;23.308;2023-05-07T13:58:40;8.48;;;2.63;;
49392;SDS011;35268;42.642;23.308;2023-05-07T14:01:06;8.00;;;2.42;;
49392;SDS011;35268;42.642;23.308;2023-05-07T14:03:31;3.83;;;2.00;;
49392;SDS011;35268;42.642;23.308;2023-05-07T14:05:58;3.88;;;2.47;;
49392;SDS011;35268;42.642;23.308;2023-05-07T14:08:26;7.97;;;2.50;;
49392;SDS011;35268;42.642;23.308;2023-05-07T14:10:52;3.95;;;2.08;;
49392;SDS011;35268;42.642;23.308;2023-05-07T14:13:17;10.25;;;1.80;;
49392;SDS011;35268;42.642;23.308;2023-05-07T14:15:43;3.30;;;2.10;;
49392;SDS011;35268;42.642;23.308;2023-05-07T14:18:11;2.85;;;1.90;;
49392;SDS011;35268;42.642;23.308;2023-05-07T14:20:37;4.25;;;1.60;;
49392;SDS011;35268;42.642;23.308;2023-05-07T14:23:03;2.92;;;1.50;;
49392;SDS011;35268;42.642;23.308;2023-05-07T14:25:29;3.72;;;1.85;;
49392;SDS011;35268;42.642;23.308;2023-05-07T14:27:54;4.85;;;2.40;;
49392;SDS011;35268;42.642;23.308;2023-05-07T14:30:20;2.97;;;1.67;;
49392;SDS011;35268;42.642;23.308;2023-05-07T14:32:47;3.13;;;1.95;;
49392;SDS011;35268;42.642;23.308;2023-05-07T14:35:12;9.98;;;2.03;;
49392;SDS011;35268;42.642;23.308;2023-05-07T14:37:38;5.05;;;1.60;;
49392;SDS011;35268;42.642;23.308;2023-05-07T14:40:03;3.42;;;1.92;;
49392;SDS011;35268;42.642;23.308;2023-05-07T14:42:29;4.10;;;1.73;;
49392;SDS011;35268;42.642;23.308;2023-05-07T14:44:55;3.28;;;1.90;;
49392;SDS011;35268;42.642;23.308;2023-05-07T14:47:20;3.38;;;1.70;;
49392;SDS011;35268;42.642;23.308;2023-05-07T14:49:46;3.17;;;1.80;;
49392;SDS011;35268;42.642;23.308;2023-05-07T14:52:11;5.22;;;2.00;;
49392;SDS011;35268;42.642;23.308;2023-05-07T14:54:37;4.10;;;1.75;;
49392;SDS011;35268;42.642;23.308;2023-05-07T14:57:02;4.07;;;1.70;;